Airfield :
LOGIN :

Register | Disclaimer

   EN    FR    IT 

 










Legend :    VFR   Marginal VFR   IFR   Intensive IFR   Very Intensive IFR
Visi :
Ceiling :
>= 8 km
>= 3000ft
5 to 8 km
1000 to 3000 ft
1500m to 5 km
500 to 1000 ft
800 to 1500m
200 to 500 ft
< 800m
< 200 ft
Symbols :   Thunderstorms  Fog  Heavy snow  Heavy precipitations  Wind > 20 kt
SIGMETs :     Misc.  Thunderstorms  Icing  Turbulence  Mountain Waves  Volcanic Ashes






- Airport Elevation : 13 ft
- IATA code : SNR


LFRZ - St-Nazaire

CURRENT METAR :
  • 141000Z AUTO 28006KT 240V330 9999 FEW023 BKN040 OVC070 21/15 Q1020 NOSIG

EXPIRED METARs :
  • 140930Z AUTO 29006KT 250V340 9999 FEW024 BKN043 OVC070 20/14 Q1020 NOSIG
  • 140900Z AUTO 30006KT 260V330 9999 BKN042 BKN049 OVC074 20/14 Q1020 NOSIG
  • 140830Z AUTO 29004KT 250V350 9999 OVC042 19/14 Q1020 NOSIG
  • 140800Z AUTO 29005KT 260V320 9999 OVC042 18/13 Q1020 NOSIG
  • 140730Z AUTO 30005KT 260V350 9999 OVC042 18/13 Q1020 NOSIG

TAF TAF LFRZ
Valid from the 14 at 06:00 until the 15 at 06:00 UTC


140500Z 1406/1506 30005KT CAVOK
BECMG 1419/1421 36010KT



MET'MAP, your aeronautical weather chart ! - Copyright ORBIFLY December 2007 - Disclaimer

ORBIFLY MET'MAP TEAM :

Programming & Development : Alexandra Zaïnal
Concept & original design : Baudouin d'Aumeries
Assistance for programming : Marc-Olivier Méhu
Technical & hardware support : Manuel Goepfert

Contact : metmap@orbifly.com




SOURCES & CREDITS :

   NOAA